NOZ1871 LIRF-ENGM
Flight info
| Callsign | NOZ1871 |
|---|---|
| Flight time | 2h 49m |
| Altitude | 18000 |
| Route | SOVAN L995 AMTEL/N0443F340 DCT NUKNI/N0445F360 DCT SUMIR DCT BRENO DCT KONIN DCT EXITI DCT EMBOX DCT BUMIL DCT GIMRU DCT SABAK L997 LUNIP |
| Aircraft | B738/M-SADE3GHIJ1LRWXY/LB1 |
Departure
| Time | 2026-05-01 09:05 |
|---|---|
| Airport | Rome–Fiumicino Leonardo da Vinci International Airport (LIRF) |
Arrival
| Time | 2026-05-01 11:55 |
|---|---|
| Airport | Oslo-Gardermoen International Airport (ENGM) |
| Time | Latitude | Longitude | Altitude | Speed | Heading |
|---|---|---|---|---|---|
| 2026-05-01 08:15 | 41.79739 | 12.25850 | 14 ft | 0 kts | 115° |
| 2026-05-01 08:52 | 41.79746 | 12.25831 | 15 ft | 4 kts | 115° |
| 2026-05-01 08:53 | 41.79756 | 12.25804 | 16 ft | 4 kts | 108° |
| 2026-05-01 08:53 | 41.79755 | 12.25777 | 17 ft | 4 kts | 38° |
| 2026-05-01 08:53 | 41.79738 | 12.25763 | 14 ft | 1 kts | 26° |
| 2026-05-01 08:53 | 41.79759 | 12.25777 | 17 ft | 4 kts | 26° |
| 2026-05-01 08:54 | 41.79781 | 12.25791 | 16 ft | 1 kts | 26° |
| 2026-05-01 08:54 | 41.79781 | 12.25792 | 16 ft | 0 kts | 26° |
| 2026-05-01 08:56 | 41.79793 | 12.25799 | 14 ft | 6 kts | 26° |
| 2026-05-01 08:57 | 41.79835 | 12.25823 | 14 ft | 7 kts | 6° |
| 2026-05-01 08:57 | 41.79867 | 12.25780 | 14 ft | 8 kts | 296° |
| 2026-05-01 08:57 | 41.79903 | 12.25680 | 16 ft | 14 kts | 295° |
| 2026-05-01 08:57 | 41.79946 | 12.25556 | 15 ft | 15 kts | 295° |
| 2026-05-01 08:58 | 41.79989 | 12.25435 | 15 ft | 15 kts | 295° |
| 2026-05-01 08:58 | 41.80038 | 12.25296 | 14 ft | 17 kts | 295° |
| 2026-05-01 08:58 | 41.80084 | 12.25141 | 14 ft | 18 kts | 288° |
| 2026-05-01 08:58 | 41.80112 | 12.24974 | 14 ft | 19 kts | 273° |
| 2026-05-01 08:59 | 41.80086 | 12.24793 | 14 ft | 20 kts | 249° |
| 2026-05-01 08:59 | 41.80035 | 12.24608 | 14 ft | 22 kts | 250° |
| 2026-05-01 08:59 | 41.79981 | 12.24413 | 15 ft | 23 kts | 249° |
| 2026-05-01 08:59 | 41.79926 | 12.24214 | 16 ft | 22 kts | 253° |
| 2026-05-01 09:00 | 41.79913 | 12.24033 | 14 ft | 18 kts | 255° |
| 2026-05-01 09:00 | 41.79870 | 12.23878 | 14 ft | 17 kts | 249° |
| 2026-05-01 09:00 | 41.79830 | 12.23734 | 14 ft | 13 kts | 249° |
| 2026-05-01 09:00 | 41.79798 | 12.23703 | 14 ft | 5 kts | 179° |
| 2026-05-01 09:01 | 41.79721 | 12.23731 | 14 ft | 18 kts | 162° |
| 2026-05-01 09:01 | 41.79580 | 12.23790 | 17 ft | 24 kts | 162° |
| 2026-05-01 09:01 | 41.79411 | 12.23861 | 14 ft | 25 kts | 162° |
| 2026-05-01 09:01 | 41.79247 | 12.23929 | 14 ft | 24 kts | 162° |
| 2026-05-01 09:02 | 41.79095 | 12.23993 | 15 ft | 23 kts | 162° |
| 2026-05-01 09:02 | 41.78946 | 12.24055 | 16 ft | 22 kts | 162° |
| 2026-05-01 09:02 | 41.78803 | 12.24115 | 14 ft | 21 kts | 162° |
| 2026-05-01 09:02 | 41.78663 | 12.24174 | 14 ft | 21 kts | 162° |
| 2026-05-01 09:03 | 41.78527 | 12.24231 | 16 ft | 21 kts | 162° |
| 2026-05-01 09:03 | 41.78387 | 12.24290 | 14 ft | 20 kts | 163° |
| 2026-05-01 09:03 | 41.78317 | 12.24247 | 14 ft | 12 kts | 252° |
| 2026-05-01 09:03 | 41.78293 | 12.24146 | 15 ft | 11 kts | 252° |
| 2026-05-01 09:04 | 41.78269 | 12.24044 | 17 ft | 11 kts | 252° |
| 2026-05-01 09:04 | 41.78281 | 12.24003 | 18 ft | 3 kts | 341° |
| 2026-05-01 09:04 | 41.78289 | 12.24000 | 16 ft | 6 kts | 343° |
| 2026-05-01 09:04 | 41.78549 | 12.23893 | 14 ft | 74 kts | 342° |
| 2026-05-01 09:05 | 41.79241 | 12.23603 | 15 ft | 133 kts | 343° |
| 2026-05-01 09:05 | 41.80238 | 12.23182 | 309 ft | 156 kts | 344° |
| 2026-05-01 09:05 | 41.81292 | 12.22755 | 1023 ft | 158 kts | 348° |
| 2026-05-01 09:05 | 41.82366 | 12.22218 | 1552 ft | 179 kts | 332° |
| 2026-05-01 09:06 | 41.83168 | 12.20740 | 1687 ft | 218 kts | 287° |
| 2026-05-01 09:06 | 41.83420 | 12.18655 | 1962 ft | 240 kts | 281° |
| 2026-05-01 09:06 | 41.83727 | 12.16355 | 2237 ft | 260 kts | 285° |
| 2026-05-01 09:06 | 41.84118 | 12.13910 | 2839 ft | 271 kts | 285° |
| 2026-05-01 09:07 | 41.84522 | 12.11461 | 3874 ft | 267 kts | 286° |
| 2026-05-01 09:07 | 41.84931 | 12.09025 | 4776 ft | 267 kts | 284° |
| 2026-05-01 09:07 | 41.85359 | 12.06578 | 5617 ft | 271 kts | 290° |
| 2026-05-01 09:07 | 41.86340 | 12.04473 | 6353 ft | 267 kts | 323° |
| 2026-05-01 09:08 | 41.87957 | 12.03353 | 7180 ft | 261 kts | 348° |
| 2026-05-01 09:08 | 41.89733 | 12.02945 | 8067 ft | 258 kts | 355° |
| 2026-05-01 09:08 | 41.91524 | 12.02684 | 8928 ft | 258 kts | 356° |
| 2026-05-01 09:08 | 41.93290 | 12.02450 | 9794 ft | 258 kts | 356° |
| 2026-05-01 09:09 | 41.95089 | 12.02213 | 10584 ft | 261 kts | 356° |
| 2026-05-01 09:09 | 41.96968 | 12.01961 | 10839 ft | 283 kts | 355° |
| 2026-05-01 09:09 | 41.99010 | 12.01682 | 11008 ft | 306 kts | 355° |
| 2026-05-01 09:09 | 42.01202 | 12.01376 | 11322 ft | 323 kts | 355° |
| 2026-05-01 09:10 | 42.03432 | 12.01057 | 11958 ft | 328 kts | 355° |
| 2026-05-01 09:10 | 42.05708 | 12.00727 | 12752 ft | 328 kts | 355° |
| 2026-05-01 09:10 | 42.07981 | 12.00396 | 13563 ft | 329 kts | 355° |
| 2026-05-01 09:10 | 42.10274 | 12.00060 | 14286 ft | 333 kts | 355° |
| 2026-05-01 09:11 | 42.12502 | 11.99733 | 14925 ft | 334 kts | 355° |
| 2026-05-01 09:11 | 42.14819 | 11.99392 | 15637 ft | 335 kts | 355° |
| 2026-05-01 09:11 | 42.17147 | 11.99049 | 16306 ft | 337 kts | 355° |
| 2026-05-01 09:11 | 42.19457 | 11.98708 | 16905 ft | 339 kts | 355° |
| 2026-05-01 09:12 | 42.21843 | 11.98356 | 17527 ft | 342 kts | 355° |
| 2026-05-01 09:12 | 42.24200 | 11.98008 | 18169 ft | 345 kts | 355° |
| 2026-05-01 09:12 | 42.26588 | 11.97655 | 18777 ft | 347 kts | 354° |
| 2026-05-01 09:12 | 42.28994 | 11.97299 | 19272 ft | 350 kts | 354° |
| 2026-05-01 09:13 | 42.31435 | 11.96938 | 19761 ft | 354 kts | 354° |
| 2026-05-01 09:13 | 42.33892 | 11.96574 | 20257 ft | 357 kts | 354° |
| 2026-05-01 09:13 | 42.36382 | 11.96205 | 20753 ft | 360 kts | 354° |
| 2026-05-01 09:13 | 42.38849 | 11.95839 | 21234 ft | 363 kts | 354° |
| 2026-05-01 09:14 | 42.41371 | 11.95464 | 21760 ft | 365 kts | 354° |
| 2026-05-01 09:14 | 42.43904 | 11.95088 | 22292 ft | 366 kts | 354° |
| 2026-05-01 09:14 | 42.46450 | 11.94709 | 22761 ft | 369 kts | 354° |
| 2026-05-01 09:14 | 42.49021 | 11.94327 | 23212 ft | 372 kts | 354° |
| 2026-05-01 09:15 | 42.51610 | 11.93941 | 23673 ft | 375 kts | 354° |
| 2026-05-01 09:15 | 42.54220 | 11.93552 | 24075 ft | 378 kts | 354° |
| 2026-05-01 09:15 | 42.56841 | 11.93161 | 24429 ft | 381 kts | 354° |
| 2026-05-01 09:15 | 42.59451 | 11.92771 | 24772 ft | 383 kts | 354° |
| 2026-05-01 09:16 | 42.62128 | 11.92370 | 25101 ft | 387 kts | 354° |
| 2026-05-01 09:16 | 42.64823 | 11.91967 | 25433 ft | 390 kts | 354° |
| 2026-05-01 09:16 | 42.66612 | 11.91699 | 25676 ft | 391 kts | 355° |
| 2026-05-01 09:17 | 42.72945 | 11.90750 | 26521 ft | 396 kts | 355° |
| 2026-05-01 09:17 | 42.75692 | 11.90338 | 26864 ft | 398 kts | 355° |
| 2026-05-01 09:17 | 42.81199 | 11.89451 | 27522 ft | 402 kts | 351° |
| 2026-05-01 09:18 | 42.83046 | 11.88852 | 27711 ft | 406 kts | 346° |
| 2026-05-01 09:18 | 42.88262 | 11.85793 | 28275 ft | 415 kts | 335° |
| 2026-05-01 09:19 | 42.93370 | 11.81995 | 28865 ft | 420 kts | 335° |
| 2026-05-01 09:19 | 42.95944 | 11.80083 | 29227 ft | 420 kts | 335° |
| 2026-05-01 09:19 | 42.98511 | 11.78185 | 29684 ft | 418 kts | 335° |
| 2026-05-01 09:20 | 43.03572 | 11.74460 | 30490 ft | 415 kts | 337° |
| 2026-05-01 09:20 | 43.08678 | 11.70709 | 31064 ft | 415 kts | 337° |
| 2026-05-01 09:21 | 43.13761 | 11.66967 | 31674 ft | 413 kts | 337° |
| 2026-05-01 09:21 | 43.16297 | 11.65097 | 32010 ft | 412 kts | 337° |
| 2026-05-01 09:21 | 43.21418 | 11.61793 | 32568 ft | 406 kts | 346° |
| 2026-05-01 09:22 | 43.26896 | 11.60340 | 33222 ft | 397 kts | 359° |
| 2026-05-01 09:22 | 43.32418 | 11.59893 | 33747 ft | 397 kts | 359° |
| 2026-05-01 09:23 | 43.35151 | 11.59675 | 33998 ft | 397 kts | 359° |
| 2026-05-01 09:23 | 43.40675 | 11.59213 | 34504 ft | 397 kts | 358° |
| 2026-05-01 09:24 | 43.46205 | 11.58732 | 35003 ft | 395 kts | 359° |
| 2026-05-01 09:24 | 43.48935 | 11.58490 | 35310 ft | 393 kts | 359° |
| 2026-05-01 09:24 | 43.54374 | 11.58007 | 35668 ft | 394 kts | 358° |
| 2026-05-01 09:25 | 43.59872 | 11.57520 | 36012 ft | 395 kts | 358° |
| 2026-05-01 09:25 | 43.65353 | 11.57032 | 36331 ft | 395 kts | 358° |
| 2026-05-01 09:26 | 43.68086 | 11.56789 | 36331 ft | 397 kts | 358° |
| 2026-05-01 09:26 | 43.76343 | 11.56053 | 36342 ft | 394 kts | 358° |
| 2026-05-01 09:27 | 43.84508 | 11.55355 | 36341 ft | 391 kts | 359° |
| 2026-05-01 09:28 | 43.89915 | 11.54945 | 36357 ft | 391 kts | 359° |
| 2026-05-01 09:28 | 43.95370 | 11.54531 | 36368 ft | 392 kts | 359° |
| 2026-05-01 09:29 | 44.03567 | 11.53901 | 36349 ft | 395 kts | 359° |
| 2026-05-01 09:30 | 44.11810 | 11.53261 | 36353 ft | 398 kts | 359° |
| 2026-05-01 09:30 | 44.20139 | 11.52612 | 36348 ft | 402 kts | 359° |
| 2026-05-01 09:31 | 44.25747 | 11.52174 | 36345 ft | 403 kts | 359° |
| 2026-05-01 09:32 | 44.34175 | 11.51514 | 36368 ft | 404 kts | 359° |
| 2026-05-01 09:32 | 44.42570 | 11.50854 | 36376 ft | 403 kts | 359° |
| 2026-05-01 09:33 | 44.48141 | 11.50416 | 36388 ft | 402 kts | 359° |
| 2026-05-01 09:34 | 44.56511 | 11.49756 | 36389 ft | 400 kts | 359° |
| 2026-05-01 09:34 | 44.64825 | 11.49098 | 36382 ft | 400 kts | 359° |
| 2026-05-01 09:35 | 44.73161 | 11.48437 | 36374 ft | 399 kts | 359° |
| 2026-05-01 09:36 | 44.78714 | 11.47996 | 36367 ft | 399 kts | 359° |
| 2026-05-01 09:36 | 44.84238 | 11.47556 | 36356 ft | 399 kts | 359° |
| 2026-05-01 09:37 | 44.89811 | 11.47111 | 36348 ft | 399 kts | 359° |
| 2026-05-01 09:37 | 44.98122 | 11.46446 | 36356 ft | 400 kts | 359° |
| 2026-05-01 09:38 | 45.06464 | 11.45777 | 36360 ft | 402 kts | 359° |
| 2026-05-01 09:39 | 45.14845 | 11.45102 | 36365 ft | 404 kts | 359° |
| 2026-05-01 09:39 | 45.20473 | 11.44648 | 36369 ft | 404 kts | 359° |
| 2026-05-01 09:40 | 45.28914 | 11.43965 | 36380 ft | 404 kts | 359° |
| 2026-05-01 09:41 | 45.34503 | 11.43512 | 36381 ft | 404 kts | 359° |
| 2026-05-01 09:41 | 45.42934 | 11.42826 | 36393 ft | 404 kts | 359° |
| 2026-05-01 09:42 | 45.48518 | 11.42371 | 36380 ft | 403 kts | 359° |
| 2026-05-01 09:43 | 45.59703 | 11.41457 | 36368 ft | 403 kts | 359° |
| 2026-05-01 09:43 | 45.65307 | 11.40998 | 36375 ft | 402 kts | 360° |
| 2026-05-01 09:44 | 45.73676 | 11.40310 | 36375 ft | 401 kts | 360° |
| 2026-05-01 09:45 | 45.79272 | 11.39849 | 36368 ft | 402 kts | 360° |
| 2026-05-01 09:45 | 45.87611 | 11.39160 | 36344 ft | 401 kts | 360° |
| 2026-05-01 09:46 | 45.93197 | 11.38697 | 36340 ft | 401 kts | 360° |
| 2026-05-01 09:46 | 45.98744 | 11.38237 | 36353 ft | 401 kts | 360° |
| 2026-05-01 09:47 | 46.04325 | 11.37774 | 36356 ft | 402 kts | 0° |
| 2026-05-01 09:47 | 46.09915 | 11.37308 | 36350 ft | 401 kts | 0° |
| 2026-05-01 09:48 | 46.15473 | 11.36841 | 36331 ft | 401 kts | 0° |
| 2026-05-01 09:48 | 46.21052 | 11.36378 | 36349 ft | 402 kts | 0° |
| 2026-05-01 09:49 | 46.26650 | 11.35946 | 36340 ft | 402 kts | 2° |
| 2026-05-01 09:49 | 46.32193 | 11.35999 | 36339 ft | 400 kts | 4° |
| 2026-05-01 09:50 | 46.37755 | 11.36196 | 36344 ft | 399 kts | 4° |
| 2026-05-01 09:50 | 46.43321 | 11.36366 | 36364 ft | 400 kts | 4° |
| 2026-05-01 09:51 | 46.48853 | 11.36506 | 36382 ft | 399 kts | 4° |
| 2026-05-01 09:51 | 46.54423 | 11.36638 | 36379 ft | 400 kts | 4° |
| 2026-05-01 09:52 | 46.60004 | 11.36769 | 36363 ft | 401 kts | 4° |
| 2026-05-01 09:52 | 46.65609 | 11.36900 | 36356 ft | 402 kts | 4° |
| 2026-05-01 09:53 | 46.71169 | 11.37030 | 36346 ft | 400 kts | 4° |
| 2026-05-01 09:53 | 46.76756 | 11.37162 | 36342 ft | 401 kts | 4° |
| 2026-05-01 09:54 | 46.82315 | 11.37291 | 36343 ft | 402 kts | 4° |
| 2026-05-01 09:54 | 46.87903 | 11.37426 | 36354 ft | 403 kts | 4° |
| 2026-05-01 09:55 | 46.93532 | 11.37561 | 36366 ft | 405 kts | 4° |
| 2026-05-01 09:55 | 46.99187 | 11.37684 | 36370 ft | 406 kts | 3° |
| 2026-05-01 09:56 | 47.04805 | 11.37650 | 36347 ft | 407 kts | 2° |
| 2026-05-01 09:56 | 47.10487 | 11.37565 | 36359 ft | 407 kts | 2° |
| 2026-05-01 09:57 | 47.16162 | 11.37497 | 36347 ft | 408 kts | 2° |
| 2026-05-01 09:57 | 47.21808 | 11.37436 | 36349 ft | 407 kts | 2° |
| 2026-05-01 09:58 | 47.27489 | 11.37379 | 36344 ft | 406 kts | 2° |
| 2026-05-01 09:58 | 47.33099 | 11.37319 | 36351 ft | 405 kts | 2° |
| 2026-05-01 09:59 | 47.38735 | 11.37266 | 36340 ft | 404 kts | 2° |
| 2026-05-01 09:59 | 47.44321 | 11.37214 | 36343 ft | 404 kts | 2° |
| 2026-05-01 10:00 | 47.49949 | 11.37159 | 36341 ft | 405 kts | 2° |
| 2026-05-01 10:00 | 47.55589 | 11.37104 | 36351 ft | 406 kts | 2° |
| 2026-05-01 10:01 | 47.61243 | 11.37048 | 36318 ft | 406 kts | 2° |
| 2026-05-01 10:01 | 47.66886 | 11.36991 | 36347 ft | 406 kts | 2° |
| 2026-05-01 10:02 | 47.72549 | 11.36936 | 36361 ft | 407 kts | 2° |
| 2026-05-01 10:02 | 47.78224 | 11.36879 | 36364 ft | 408 kts | 2° |
| 2026-05-01 10:03 | 47.83897 | 11.36823 | 36363 ft | 409 kts | 2° |
| 2026-05-01 10:03 | 47.89573 | 11.36840 | 36365 ft | 410 kts | 3° |
| 2026-05-01 10:04 | 47.95284 | 11.36985 | 36374 ft | 410 kts | 3° |
| 2026-05-01 10:04 | 48.01009 | 11.37137 | 36372 ft | 411 kts | 3° |
| 2026-05-01 10:05 | 48.05769 | 11.37252 | 36376 ft | 412 kts | 3° |
| 2026-05-01 10:05 | 48.12449 | 11.37405 | 36371 ft | 412 kts | 3° |
| 2026-05-01 10:06 | 48.17214 | 11.37512 | 36374 ft | 411 kts | 3° |
| 2026-05-01 10:06 | 48.22948 | 11.37640 | 36372 ft | 411 kts | 3° |
| 2026-05-01 10:07 | 48.28671 | 11.37769 | 36371 ft | 410 kts | 3° |
| 2026-05-01 10:07 | 48.34356 | 11.37897 | 36379 ft | 410 kts | 3° |
| 2026-05-01 10:08 | 48.42879 | 11.38090 | 36385 ft | 409 kts | 3° |
| 2026-05-01 10:09 | 48.48568 | 11.38219 | 36381 ft | 408 kts | 3° |
| 2026-05-01 10:09 | 48.54249 | 11.38349 | 36390 ft | 408 kts | 3° |
| 2026-05-01 10:10 | 48.59924 | 11.38478 | 36399 ft | 408 kts | 3° |
| 2026-05-01 10:10 | 48.68415 | 11.38673 | 36401 ft | 408 kts | 3° |
| 2026-05-01 10:11 | 48.74106 | 11.38804 | 36384 ft | 408 kts | 3° |
| 2026-05-01 10:11 | 48.79807 | 11.38936 | 36406 ft | 415 kts | 2° |
| 2026-05-01 10:12 | 48.85656 | 11.39072 | 36411 ft | 423 kts | 2° |
| 2026-05-01 10:13 | 48.94553 | 11.39277 | 36396 ft | 430 kts | 2° |
| 2026-05-01 10:13 | 49.00543 | 11.39415 | 36390 ft | 431 kts | 2° |
| 2026-05-01 10:14 | 49.09538 | 11.39623 | 36392 ft | 431 kts | 2° |
| 2026-05-01 10:14 | 49.15541 | 11.39763 | 36406 ft | 430 kts | 2° |
| 2026-05-01 10:15 | 49.21488 | 11.39902 | 36391 ft | 429 kts | 2° |
| 2026-05-01 10:15 | 49.27488 | 11.40042 | 36398 ft | 428 kts | 2° |
| 2026-05-01 10:16 | 49.33419 | 11.40182 | 36403 ft | 427 kts | 2° |
| 2026-05-01 10:17 | 49.42341 | 11.40392 | 36392 ft | 426 kts | 2° |
| 2026-05-01 10:17 | 49.51230 | 11.40603 | 36406 ft | 426 kts | 2° |
| 2026-05-01 10:18 | 49.60099 | 11.40718 | 36421 ft | 426 kts | 1° |
| 2026-05-01 10:19 | 49.66052 | 11.40565 | 36398 ft | 427 kts | 0° |
| 2026-05-01 10:19 | 49.71973 | 11.40397 | 36411 ft | 428 kts | 0° |
| 2026-05-01 10:20 | 49.80901 | 11.40180 | 36409 ft | 429 kts | 0° |
| 2026-05-01 10:20 | 49.86893 | 11.40046 | 36397 ft | 430 kts | 0° |
| 2026-05-01 10:21 | 49.95898 | 11.39848 | 36405 ft | 432 kts | 0° |
| 2026-05-01 10:22 | 50.04939 | 11.39646 | 36421 ft | 434 kts | 0° |
| 2026-05-01 10:23 | 50.13990 | 11.39444 | 36414 ft | 435 kts | 0° |
| 2026-05-01 10:23 | 50.23063 | 11.39240 | 36424 ft | 436 kts | 0° |
| 2026-05-01 10:24 | 50.35224 | 11.38966 | 36418 ft | 436 kts | 0° |
| 2026-05-01 10:25 | 50.47340 | 11.38691 | 36426 ft | 435 kts | 0° |
| 2026-05-01 10:26 | 50.53406 | 11.38553 | 36425 ft | 435 kts | 0° |
| 2026-05-01 10:27 | 50.65469 | 11.38278 | 36423 ft | 434 kts | 0° |
| 2026-05-01 10:28 | 50.74522 | 11.38070 | 36421 ft | 433 kts | 0° |
| 2026-05-01 10:28 | 50.83525 | 11.37863 | 36426 ft | 433 kts | 0° |
| 2026-05-01 10:29 | 50.92592 | 11.37654 | 36434 ft | 434 kts | 0° |
| 2026-05-01 10:30 | 51.04681 | 11.37373 | 36430 ft | 437 kts | 360° |
| 2026-05-01 10:31 | 51.16899 | 11.37088 | 36433 ft | 440 kts | 360° |
| 2026-05-01 10:32 | 51.26086 | 11.36872 | 36437 ft | 442 kts | 360° |
| 2026-05-01 10:33 | 51.38435 | 11.36581 | 36439 ft | 443 kts | 360° |
| 2026-05-01 10:34 | 51.47662 | 11.36362 | 36435 ft | 443 kts | 360° |
| 2026-05-01 10:34 | 51.53843 | 11.36216 | 36429 ft | 443 kts | 360° |
| 2026-05-01 10:35 | 51.63048 | 11.35997 | 36427 ft | 442 kts | 360° |
| 2026-05-01 10:35 | 51.69212 | 11.35849 | 36434 ft | 441 kts | 360° |
| 2026-05-01 10:36 | 51.78431 | 11.35628 | 36425 ft | 441 kts | 360° |
| 2026-05-01 10:37 | 51.84530 | 11.35481 | 36427 ft | 441 kts | 360° |
| 2026-05-01 10:37 | 51.93739 | 11.35259 | 36428 ft | 441 kts | 360° |
| 2026-05-01 10:38 | 51.99885 | 11.35110 | 36433 ft | 441 kts | 360° |
| 2026-05-01 10:38 | 52.05986 | 11.34961 | 36427 ft | 441 kts | 359° |
| 2026-05-01 10:39 | 52.12134 | 11.34658 | 36422 ft | 441 kts | 358° |
| 2026-05-01 10:39 | 52.18290 | 11.34262 | 36429 ft | 442 kts | 358° |
| 2026-05-01 10:40 | 52.24407 | 11.33878 | 36430 ft | 443 kts | 358° |
| 2026-05-01 10:40 | 52.30593 | 11.33507 | 36434 ft | 444 kts | 358° |
| 2026-05-01 10:41 | 52.36749 | 11.33143 | 36425 ft | 445 kts | 358° |
| 2026-05-01 10:42 | 52.46077 | 11.32591 | 36428 ft | 446 kts | 358° |
| 2026-05-01 10:42 | 52.52254 | 11.32223 | 36427 ft | 447 kts | 358° |
| 2026-05-01 10:43 | 52.58482 | 11.31851 | 36423 ft | 447 kts | 358° |
| 2026-05-01 10:43 | 52.64706 | 11.31478 | 36423 ft | 447 kts | 358° |
| 2026-05-01 10:44 | 52.70894 | 11.31107 | 36427 ft | 447 kts | 358° |
| 2026-05-01 10:44 | 52.77125 | 11.30731 | 36419 ft | 447 kts | 358° |
| 2026-05-01 10:45 | 52.83345 | 11.30356 | 36421 ft | 446 kts | 358° |
| 2026-05-01 10:45 | 52.89537 | 11.29981 | 36422 ft | 446 kts | 358° |
| 2026-05-01 10:46 | 52.95742 | 11.29604 | 36422 ft | 445 kts | 358° |
| 2026-05-01 10:46 | 53.01899 | 11.29229 | 36418 ft | 445 kts | 358° |
| 2026-05-01 10:47 | 53.08090 | 11.28851 | 36421 ft | 445 kts | 358° |
| 2026-05-01 10:47 | 53.14286 | 11.28522 | 36419 ft | 444 kts | 0° |
| 2026-05-01 10:48 | 53.20473 | 11.28624 | 36414 ft | 445 kts | 1° |
| 2026-05-01 10:48 | 53.26626 | 11.28828 | 36422 ft | 445 kts | 1° |
| 2026-05-01 10:49 | 53.32836 | 11.28990 | 36427 ft | 446 kts | 1° |
| 2026-05-01 10:49 | 53.39050 | 11.29117 | 36422 ft | 447 kts | 1° |
| 2026-05-01 10:50 | 53.45252 | 11.29232 | 36418 ft | 448 kts | 1° |
| 2026-05-01 10:50 | 53.51499 | 11.29347 | 36424 ft | 448 kts | 1° |
| 2026-05-01 10:51 | 53.57751 | 11.29464 | 36418 ft | 449 kts | 1° |
| 2026-05-01 10:51 | 53.63974 | 11.29581 | 36414 ft | 449 kts | 1° |
| 2026-05-01 10:52 | 53.70233 | 11.29700 | 36419 ft | 449 kts | 1° |
| 2026-05-01 10:52 | 53.76501 | 11.29819 | 36420 ft | 449 kts | 1° |
| 2026-05-01 10:53 | 53.82724 | 11.29937 | 36416 ft | 449 kts | 1° |
| 2026-05-01 10:53 | 53.88981 | 11.30057 | 36417 ft | 449 kts | 1° |
| 2026-05-01 10:54 | 53.94176 | 11.30156 | 36425 ft | 448 kts | 1° |
| 2026-05-01 10:54 | 54.00388 | 11.30276 | 36421 ft | 448 kts | 1° |
| 2026-05-01 10:55 | 54.06634 | 11.30396 | 36419 ft | 448 kts | 1° |
| 2026-05-01 10:55 | 54.12866 | 11.30517 | 36424 ft | 447 kts | 1° |
| 2026-05-01 10:56 | 54.19098 | 11.30637 | 36426 ft | 447 kts | 1° |
| 2026-05-01 10:56 | 54.25290 | 11.30758 | 36430 ft | 447 kts | 1° |
| 2026-05-01 10:57 | 54.31513 | 11.30879 | 36425 ft | 447 kts | 1° |
| 2026-05-01 10:57 | 54.37743 | 11.31001 | 36426 ft | 447 kts | 1° |
| 2026-05-01 10:58 | 54.43938 | 11.31123 | 36429 ft | 447 kts | 1° |
| 2026-05-01 10:58 | 54.50175 | 11.31246 | 36427 ft | 447 kts | 1° |
| 2026-05-01 10:59 | 54.56413 | 11.31370 | 36428 ft | 448 kts | 1° |
| 2026-05-01 10:59 | 54.62605 | 11.31777 | 36426 ft | 448 kts | 3° |
| 2026-05-01 11:00 | 54.68841 | 11.32362 | 36429 ft | 448 kts | 3° |
| 2026-05-01 11:00 | 54.75090 | 11.32933 | 36435 ft | 449 kts | 3° |
| 2026-05-01 11:01 | 54.81320 | 11.33471 | 36428 ft | 449 kts | 3° |
| 2026-05-01 11:01 | 54.87582 | 11.33998 | 36421 ft | 449 kts | 3° |
| 2026-05-01 11:02 | 54.93797 | 11.34520 | 36427 ft | 449 kts | 3° |
| 2026-05-01 11:02 | 55.00039 | 11.35046 | 36428 ft | 448 kts | 3° |
| 2026-05-01 11:03 | 55.06288 | 11.35576 | 36423 ft | 448 kts | 3° |
| 2026-05-01 11:03 | 55.12487 | 11.36103 | 36425 ft | 448 kts | 3° |
| 2026-05-01 11:04 | 55.18716 | 11.36634 | 36426 ft | 447 kts | 3° |
| 2026-05-01 11:04 | 55.24920 | 11.37165 | 36423 ft | 447 kts | 3° |
| 2026-05-01 11:05 | 55.31146 | 11.37700 | 36418 ft | 447 kts | 2° |
| 2026-05-01 11:05 | 55.37330 | 11.38232 | 36418 ft | 447 kts | 2° |
| 2026-05-01 11:06 | 55.43547 | 11.38769 | 36425 ft | 447 kts | 2° |
| 2026-05-01 11:06 | 55.49782 | 11.39309 | 36416 ft | 447 kts | 2° |
| 2026-05-01 11:07 | 55.59076 | 11.40118 | 36414 ft | 447 kts | 2° |
| 2026-05-01 11:07 | 55.65282 | 11.40660 | 36408 ft | 447 kts | 2° |
| 2026-05-01 11:08 | 55.71465 | 11.41201 | 36413 ft | 447 kts | 2° |
| 2026-05-01 11:09 | 55.80806 | 11.42023 | 36416 ft | 447 kts | 2° |
| 2026-05-01 11:09 | 55.87028 | 11.42573 | 36417 ft | 447 kts | 2° |
| 2026-05-01 11:10 | 55.96324 | 11.43397 | 36414 ft | 447 kts | 2° |
| 2026-05-01 11:10 | 56.02556 | 11.43952 | 36410 ft | 448 kts | 2° |
| 2026-05-01 11:11 | 56.08758 | 11.44506 | 36407 ft | 448 kts | 2° |
| 2026-05-01 11:11 | 56.14999 | 11.45064 | 36386 ft | 448 kts | 2° |
| 2026-05-01 11:12 | 56.21233 | 11.45626 | 36403 ft | 448 kts | 2° |
| 2026-05-01 11:12 | 56.27435 | 11.46185 | 36400 ft | 449 kts | 2° |
| 2026-05-01 11:13 | 56.33680 | 11.46751 | 36385 ft | 450 kts | 2° |
| 2026-05-01 11:13 | 56.39935 | 11.47318 | 36402 ft | 450 kts | 2° |
| 2026-05-01 11:14 | 56.46219 | 11.47890 | 36401 ft | 451 kts | 2° |
| 2026-05-01 11:14 | 56.52460 | 11.48460 | 36388 ft | 452 kts | 2° |
| 2026-05-01 11:15 | 56.58742 | 11.49036 | 36407 ft | 452 kts | 2° |
| 2026-05-01 11:15 | 56.65028 | 11.49614 | 36396 ft | 452 kts | 2° |
| 2026-05-01 11:16 | 56.71321 | 11.50195 | 36395 ft | 452 kts | 2° |
| 2026-05-01 11:16 | 56.77581 | 11.50775 | 36389 ft | 452 kts | 2° |
| 2026-05-01 11:17 | 56.83882 | 11.51360 | 36375 ft | 452 kts | 2° |
| 2026-05-01 11:17 | 56.90167 | 11.51947 | 36380 ft | 452 kts | 1° |
| 2026-05-01 11:18 | 56.96408 | 11.52530 | 36384 ft | 452 kts | 1° |
| 2026-05-01 11:18 | 57.02696 | 11.53120 | 36377 ft | 451 kts | 1° |
| 2026-05-01 11:19 | 57.08963 | 11.53711 | 36377 ft | 451 kts | 1° |
| 2026-05-01 11:19 | 57.15241 | 11.54304 | 36384 ft | 451 kts | 1° |
| 2026-05-01 11:20 | 57.21472 | 11.54894 | 36378 ft | 451 kts | 1° |
| 2026-05-01 11:20 | 57.27753 | 11.55492 | 36375 ft | 451 kts | 1° |
| 2026-05-01 11:21 | 57.33990 | 11.56088 | 36378 ft | 451 kts | 1° |
| 2026-05-01 11:21 | 57.40274 | 11.56689 | 36391 ft | 451 kts | 1° |
| 2026-05-01 11:22 | 57.46564 | 11.57293 | 36369 ft | 452 kts | 1° |
| 2026-05-01 11:22 | 57.52811 | 11.57896 | 36368 ft | 452 kts | 1° |
| 2026-05-01 11:23 | 57.59111 | 11.58506 | 36367 ft | 452 kts | 1° |
| 2026-05-01 11:23 | 57.65407 | 11.59118 | 36365 ft | 453 kts | 1° |
| 2026-05-01 11:24 | 57.71672 | 11.59728 | 36374 ft | 453 kts | 0° |
| 2026-05-01 11:25 | 57.81122 | 11.60653 | 36374 ft | 453 kts | 0° |
| 2026-05-01 11:25 | 57.90546 | 11.61581 | 36369 ft | 454 kts | 0° |
| 2026-05-01 11:26 | 58.00013 | 11.62518 | 36365 ft | 454 kts | 360° |
| 2026-05-01 11:27 | 58.06323 | 11.63144 | 36349 ft | 454 kts | 360° |
| 2026-05-01 11:27 | 58.12604 | 11.63771 | 36342 ft | 454 kts | 360° |
| 2026-05-01 11:28 | 58.18907 | 11.64043 | 36325 ft | 450 kts | 351° |
| 2026-05-01 11:28 | 58.25028 | 11.62232 | 36333 ft | 447 kts | 347° |
| 2026-05-01 11:29 | 58.34206 | 11.59209 | 36328 ft | 447 kts | 347° |
| 2026-05-01 11:30 | 58.43421 | 11.56325 | 36228 ft | 449 kts | 347° |
| 2026-05-01 11:30 | 58.46534 | 11.55357 | 35627 ft | 454 kts | 347° |
| 2026-05-01 11:30 | 58.49641 | 11.54392 | 35008 ft | 452 kts | 347° |
| 2026-05-01 11:30 | 58.52710 | 11.53436 | 34379 ft | 452 kts | 347° |
| 2026-05-01 11:31 | 58.55784 | 11.52476 | 33619 ft | 453 kts | 347° |
| 2026-05-01 11:31 | 58.58904 | 11.51498 | 32879 ft | 453 kts | 347° |
| 2026-05-01 11:31 | 58.62018 | 11.50520 | 32161 ft | 453 kts | 347° |
| 2026-05-01 11:31 | 58.65135 | 11.49540 | 31399 ft | 454 kts | 347° |
| 2026-05-01 11:32 | 58.68254 | 11.48558 | 30648 ft | 454 kts | 347° |
| 2026-05-01 11:32 | 58.71373 | 11.47574 | 29802 ft | 453 kts | 347° |
| 2026-05-01 11:32 | 58.74490 | 11.46588 | 29101 ft | 455 kts | 347° |
| 2026-05-01 11:32 | 58.77616 | 11.45595 | 28488 ft | 463 kts | 347° |
| 2026-05-01 11:33 | 58.80805 | 11.44580 | 27891 ft | 468 kts | 347° |
| 2026-05-01 11:33 | 58.84032 | 11.43554 | 27270 ft | 470 kts | 347° |
| 2026-05-01 11:33 | 58.87270 | 11.42541 | 26696 ft | 471 kts | 348° |
| 2026-05-01 11:33 | 58.90448 | 11.42082 | 26471 ft | 476 kts | 355° |
| 2026-05-01 11:34 | 58.93741 | 11.42041 | 26221 ft | 467 kts | 356° |
| 2026-05-01 11:34 | 58.96951 | 11.42092 | 25952 ft | 452 kts | 356° |
| 2026-05-01 11:34 | 59.00030 | 11.42149 | 25696 ft | 446 kts | 356° |
| 2026-05-01 11:34 | 59.03128 | 11.42181 | 25432 ft | 444 kts | 356° |
| 2026-05-01 11:35 | 59.06228 | 11.42182 | 25226 ft | 444 kts | 355° |
| 2026-05-01 11:35 | 59.09325 | 11.42160 | 24975 ft | 443 kts | 355° |
| 2026-05-01 11:35 | 59.12373 | 11.42126 | 24754 ft | 443 kts | 355° |
| 2026-05-01 11:35 | 59.15451 | 11.42085 | 24520 ft | 442 kts | 355° |
| 2026-05-01 11:36 | 59.18525 | 11.42040 | 24287 ft | 441 kts | 355° |
| 2026-05-01 11:36 | 59.21593 | 11.41995 | 24044 ft | 440 kts | 355° |
| 2026-05-01 11:36 | 59.24652 | 11.41952 | 23807 ft | 439 kts | 355° |
| 2026-05-01 11:36 | 59.27706 | 11.41909 | 23529 ft | 437 kts | 355° |
| 2026-05-01 11:37 | 59.30745 | 11.41867 | 23183 ft | 434 kts | 354° |
| 2026-05-01 11:37 | 59.33764 | 11.41827 | 22610 ft | 429 kts | 354° |
| 2026-05-01 11:37 | 59.36696 | 11.41790 | 22051 ft | 424 kts | 354° |
| 2026-05-01 11:37 | 59.39629 | 11.41752 | 21520 ft | 419 kts | 354° |
| 2026-05-01 11:38 | 59.42531 | 11.41713 | 20958 ft | 416 kts | 353° |
| 2026-05-01 11:38 | 59.45415 | 11.41673 | 20398 ft | 412 kts | 353° |
| 2026-05-01 11:38 | 59.48275 | 11.41632 | 19866 ft | 409 kts | 353° |
| 2026-05-01 11:38 | 59.51113 | 11.41592 | 19332 ft | 406 kts | 353° |
| 2026-05-01 11:39 | 59.53928 | 11.41551 | 18800 ft | 403 kts | 353° |
| 2026-05-01 11:39 | 59.56696 | 11.41511 | 18237 ft | 401 kts | 353° |
| 2026-05-01 11:39 | 59.59484 | 11.41471 | 17654 ft | 399 kts | 353° |
| 2026-05-01 11:39 | 59.62253 | 11.41431 | 17097 ft | 396 kts | 353° |
| 2026-05-01 11:40 | 59.64996 | 11.41393 | 16559 ft | 393 kts | 353° |
| 2026-05-01 11:40 | 59.67730 | 11.41355 | 16056 ft | 389 kts | 353° |
| 2026-05-01 11:40 | 59.70432 | 11.41317 | 15531 ft | 386 kts | 353° |
| 2026-05-01 11:40 | 59.73080 | 11.41279 | 15021 ft | 383 kts | 353° |
| 2026-05-01 11:41 | 59.75744 | 11.41242 | 14493 ft | 380 kts | 353° |
| 2026-05-01 11:41 | 59.78381 | 11.41202 | 13992 ft | 377 kts | 354° |
| 2026-05-01 11:41 | 59.81001 | 11.41164 | 13438 ft | 374 kts | 353° |
| 2026-05-01 11:41 | 59.83603 | 11.41128 | 12894 ft | 371 kts | 354° |
| 2026-05-01 11:42 | 59.85309 | 11.41104 | 12556 ft | 369 kts | 354° |
| 2026-05-01 11:42 | 59.88677 | 11.41057 | 11902 ft | 365 kts | 354° |
| 2026-05-01 11:42 | 59.91213 | 11.41020 | 11405 ft | 362 kts | 354° |
| 2026-05-01 11:42 | 59.93718 | 11.40984 | 11035 ft | 356 kts | 354° |
| 2026-05-01 11:43 | 59.95371 | 11.40964 | 10949 ft | 347 kts | 354° |
| 2026-05-01 11:43 | 59.97750 | 11.40935 | 10797 ft | 336 kts | 354° |
| 2026-05-01 11:43 | 60.00019 | 11.40908 | 10656 ft | 326 kts | 353° |
| 2026-05-01 11:44 | 60.04427 | 11.40846 | 10380 ft | 307 kts | 353° |
| 2026-05-01 11:44 | 60.06542 | 11.40816 | 10252 ft | 299 kts | 353° |
| 2026-05-01 11:44 | 60.08617 | 11.40783 | 9915 ft | 298 kts | 353° |
| 2026-05-01 11:44 | 60.10674 | 11.40745 | 9503 ft | 299 kts | 353° |
| 2026-05-01 11:45 | 60.12778 | 11.40710 | 9168 ft | 298 kts | 353° |
| 2026-05-01 11:45 | 60.14845 | 11.40678 | 8830 ft | 295 kts | 354° |
| 2026-05-01 11:45 | 60.16860 | 11.40647 | 8537 ft | 293 kts | 354° |
| 2026-05-01 11:45 | 60.18899 | 11.40617 | 8225 ft | 292 kts | 353° |
| 2026-05-01 11:46 | 60.20922 | 11.40586 | 7890 ft | 292 kts | 353° |
| 2026-05-01 11:46 | 60.22968 | 11.40553 | 7523 ft | 294 kts | 354° |
| 2026-05-01 11:46 | 60.25018 | 11.40523 | 7209 ft | 294 kts | 354° |
| 2026-05-01 11:46 | 60.27061 | 11.40493 | 6926 ft | 293 kts | 354° |
| 2026-05-01 11:47 | 60.29083 | 11.40466 | 6626 ft | 289 kts | 353° |
| 2026-05-01 11:47 | 60.31083 | 11.40441 | 6310 ft | 283 kts | 354° |
| 2026-05-01 11:47 | 60.33005 | 11.40412 | 6103 ft | 273 kts | 354° |
| 2026-05-01 11:47 | 60.34858 | 11.40387 | 5988 ft | 258 kts | 354° |
| 2026-05-01 11:48 | 60.36614 | 11.40361 | 5907 ft | 247 kts | 353° |
| 2026-05-01 11:48 | 60.38309 | 11.40340 | 5801 ft | 239 kts | 352° |
| 2026-05-01 11:48 | 60.39829 | 11.39530 | 5706 ft | 216 kts | 319° |
| 2026-05-01 11:48 | 60.40774 | 11.37350 | 5666 ft | 209 kts | 294° |
| 2026-05-01 11:49 | 60.41210 | 11.34535 | 5391 ft | 211 kts | 272° |
| 2026-05-01 11:49 | 60.41080 | 11.31599 | 5151 ft | 209 kts | 256° |
| 2026-05-01 11:49 | 60.40717 | 11.28738 | 4910 ft | 209 kts | 256° |
| 2026-05-01 11:49 | 60.40356 | 11.25919 | 4632 ft | 201 kts | 252° |
| 2026-05-01 11:50 | 60.39615 | 11.23692 | 4389 ft | 194 kts | 214° |
| 2026-05-01 11:50 | 60.38376 | 11.22826 | 4254 ft | 182 kts | 199° |
| 2026-05-01 11:50 | 60.37178 | 11.22127 | 4148 ft | 182 kts | 200° |
| 2026-05-01 11:50 | 60.35942 | 11.21399 | 3950 ft | 188 kts | 199° |
| 2026-05-01 11:51 | 60.34684 | 11.20669 | 3682 ft | 185 kts | 199° |
| 2026-05-01 11:51 | 60.33478 | 11.20022 | 3442 ft | 187 kts | 197° |
| 2026-05-01 11:51 | 60.32259 | 11.19240 | 3227 ft | 186 kts | 199° |
| 2026-05-01 11:51 | 60.31008 | 11.18585 | 2972 ft | 184 kts | 195° |
| 2026-05-01 11:52 | 60.29803 | 11.17759 | 2709 ft | 176 kts | 200° |
| 2026-05-01 11:52 | 60.28645 | 11.17242 | 2504 ft | 166 kts | 195° |
| 2026-05-01 11:52 | 60.27562 | 11.16580 | 2228 ft | 161 kts | 199° |
| 2026-05-01 11:52 | 60.26521 | 11.15924 | 2099 ft | 150 kts | 198° |
| 2026-05-01 11:53 | 60.25549 | 11.15392 | 1872 ft | 142 kts | 197° |
| 2026-05-01 11:53 | 60.24616 | 11.14874 | 1613 ft | 137 kts | 199° |
| 2026-05-01 11:53 | 60.23681 | 11.14311 | 1423 ft | 146 kts | 198° |
| 2026-05-01 11:53 | 60.22703 | 11.13753 | 1245 ft | 140 kts | 198° |
| 2026-05-01 11:54 | 60.21755 | 11.13206 | 1057 ft | 141 kts | 199° |
| 2026-05-01 11:54 | 60.20809 | 11.12666 | 887 ft | 139 kts | 201° |
| 2026-05-01 11:54 | 60.19910 | 11.12133 | 700 ft | 133 kts | 200° |
| 2026-05-01 11:54 | 60.19099 | 11.11658 | 683 ft | 100 kts | 196° |
| 2026-05-01 11:55 | 60.18672 | 11.11411 | 683 ft | 39 kts | 196° |
| 2026-05-01 11:55 | 60.18461 | 11.11191 | 682 ft | 22 kts | 226° |
| 2026-05-01 11:55 | 60.18440 | 11.11027 | 681 ft | 8 kts | 284° |
| 2026-05-01 11:55 | 60.18453 | 11.10928 | 680 ft | 7 kts | 285° |
| 2026-05-01 11:56 | 60.18467 | 11.10830 | 679 ft | 8 kts | 285° |
| 2026-05-01 11:56 | 60.18510 | 11.10761 | 681 ft | 10 kts | 355° |
| 2026-05-01 11:56 | 60.18596 | 11.10806 | 679 ft | 15 kts | 17° |
| 2026-05-01 11:56 | 60.18700 | 11.10866 | 682 ft | 15 kts | 15° |
| 2026-05-01 11:57 | 60.18801 | 11.10923 | 682 ft | 15 kts | 16° |
| 2026-05-01 11:57 | 60.18903 | 11.10982 | 682 ft | 17 kts | 15° |
| 2026-05-01 11:57 | 60.19028 | 11.11054 | 682 ft | 20 kts | 16° |
| 2026-05-01 11:57 | 60.19163 | 11.11133 | 683 ft | 20 kts | 16° |
| 2026-05-01 11:58 | 60.19294 | 11.11209 | 683 ft | 19 kts | 16° |
| 2026-05-01 11:58 | 60.19396 | 11.11256 | 683 ft | 11 kts | 349° |
| 2026-05-01 11:58 | 60.19460 | 11.10945 | 682 ft | 16 kts | 286° |
| 2026-05-01 11:59 | 60.19493 | 11.10713 | 680 ft | 16 kts | 286° |
| 2026-05-01 11:59 | 60.19520 | 11.10527 | 682 ft | 13 kts | 286° |
| 2026-05-01 11:59 | 60.19537 | 11.10364 | 683 ft | 9 kts | 258° |
| 2026-05-01 12:00 | 60.19457 | 11.10242 | 684 ft | 4 kts | 196° |
| 2026-05-01 12:00 | 60.19448 | 11.10237 | 679 ft | 0 kts | 195° |